Time;durP1;ratioP1;P1;durP2;ratioP2;P2;SDS_P1;SDS_P2;PMS_P1;PMS_P2;Temp;Humidity;BMP_temperature;BMP_pressure;BME280_temperature;BME280_humidity;BME280_pressure;Samples;Min_cycle;Max_cycle;Signal;HPM_P1;HPM_P2
2021/09/19 00:00:31;;;;;;;4.28;2.40;;;15.40;99.90;;;;;;4897531;29;20044;-79
2021/09/19 00:02:59;;;;;;;4.63;2.50;;;15.30;99.90;;;;;;4882202;29;20071;-80
2021/09/19 00:05:27;;;;;;;3.75;2.85;;;15.30;99.90;;;;;;4915540;29;20119;-79
2021/09/19 00:07:53;;;;;;;3.47;2.30;;;15.30;99.90;;;;;;4899226;29;20167;-79
2021/09/19 00:10:18;;;;;;;4.43;2.38;;;15.30;99.90;;;;;;4877868;29;20081;-79
2021/09/19 00:12:45;;;;;;;3.67;2.30;;;15.30;99.90;;;;;;4894607;29;20150;-79
2021/09/19 00:15:14;;;;;;;6.03;2.33;;;15.40;99.90;;;;;;4895428;29;20040;-79
2021/09/19 00:17:39;;;;;;;4.28;2.50;;;15.40;99.90;;;;;;4893988;29;20396;-79
2021/09/19 00:20:07;;;;;;;2.67;2.28;;;15.40;99.90;;;;;;4895358;29;20036;-79
2021/09/19 00:22:35;;;;;;;6.43;2.25;;;15.40;99.90;;;;;;4889348;29;20048;-79
2021/09/19 00:25:03;;;;;;;4.18;2.65;;;15.50;99.90;;;;;;4891845;29;20108;-80
2021/09/19 00:27:31;;;;;;;5.15;2.22;;;15.40;99.90;;;;;;4891580;29;20132;-78
2021/09/19 00:30:00;;;;;;;3.28;2.70;;;15.40;99.90;;;;;;4879269;29;20064;-80
2021/09/19 00:32:26;;;;;;;2.83;2.50;;;15.40;99.90;;;;;;4892340;29;20133;-79
2021/09/19 00:34:52;;;;;;;2.85;2.17;;;15.40;99.90;;;;;;4894654;29;20048;-79
2021/09/19 00:37:23;;;;;;;3.20;2.17;;;15.40;99.90;;;;;;4895042;29;20124;-79
2021/09/19 00:39:49;;;;;;;4.35;2.50;;;15.40;99.90;;;;;;4894135;29;20453;-79
2021/09/19 00:42:17;;;;;;;7.18;2.50;;;15.30;99.90;;;;;;4894649;29;20076;-78
2021/09/19 00:44:46;;;;;;;4.28;2.58;;;15.40;99.90;;;;;;4866047;29;20048;-79
2021/09/19 00:47:11;;;;;;;3.70;2.58;;;15.40;99.90;;;;;;4879642;29;20498;-79
2021/09/19 00:49:37;;;;;;;5.82;2.55;;;15.40;99.90;;;;;;4892692;29;20500;-79
2021/09/19 00:52:05;;;;;;;4.30;2.50;;;15.40;99.90;;;;;;4892577;29;20040;-79
2021/09/19 00:54:41;;;;;;;3.03;2.35;;;15.40;99.90;;;;;;4879472;29;20076;-78
2021/09/19 00:57:08;;;;;;;4.30;2.67;;;15.40;99.90;;;;;;4894591;29;20072;-79
2021/09/19 00:59:37;;;;;;;3.47;2.60;;;15.40;99.90;;;;;;4909400;29;20077;-78
2021/09/19 01:02:02;;;;;;;3.50;2.90;;;15.40;99.90;;;;;;4894455;29;20043;-79
2021/09/19 01:04:29;;;;;;;3.70;2.83;;;15.30;99.90;;;;;;4909300;29;20489;-78
2021/09/19 01:06:54;;;;;;;6.18;3.03;;;15.30;99.90;;;;;;4878478;29;20242;-80
2021/09/19 01:09:21;;;;;;;5.60;3.20;;;15.30;99.90;;;;;;4895012;29;20207;-78
2021/09/19 01:11:48;;;;;;;3.90;3.03;;;15.30;99.90;;;;;;4893231;29;20160;-79
2021/09/19 01:14:22;;;;;;;3.42;3.10;;;15.30;99.90;;;;;;4893106;29;20036;-79
2021/09/19 01:16:48;;;;;;;4.72;3.40;;;15.30;99.90;;;;;;4890211;29;20515;-79
2021/09/19 01:19:21;;;;;;;4.82;3.65;;;15.30;99.90;;;;;;4891190;29;20036;-79
2021/09/19 01:22:04;;;;;;;4.43;3.63;;;15.30;99.90;;;;;;4893809;29;20036;-80
2021/09/19 01:24:30;;;;;;;4.70;3.65;;;15.30;99.90;;;;;;4894476;29;20323;-79
2021/09/19 01:27:01;;;;;;;7.22;4.07;;;15.30;99.90;;;;;;4893014;29;20088;-80
2021/09/19 01:29:29;;;;;;;5.00;4.15;;;15.30;99.90;;;;;;4891972;29;20105;-79
2021/09/19 01:31:56;;;;;;;6.55;4.57;;;15.30;99.90;;;;;;4892654;29;20135;-80
2021/09/19 01:34:26;;;;;;;6.97;4.50;;;15.30;99.90;;;;;;4893715;29;20636;-79
2021/09/19 01:36:52;;;;;;;6.95;5.00;;;15.30;99.90;;;;;;4893752;29;20040;-79
2021/09/19 01:39:18;;;;;;;8.20;5.30;;;15.30;99.90;;;;;;4892819;29;20512;-79
2021/09/19 01:41:44;;;;;;;8.10;5.63;;;15.40;99.90;;;;;;4893141;29;20040;-79
2021/09/19 01:44:10;;;;;;;7.32;5.35;;;15.40;99.90;;;;;;4877838;29;20041;-78
2021/09/19 01:46:37;;;;;;;6.75;6.05;;;15.30;99.90;;;;;;4892820;29;20041;-79
2021/09/19 01:49:07;;;;;;;8.27;5.90;;;15.30;99.90;;;;;;4891436;29;20100;-80
2021/09/19 01:51:33;;;;;;;11.55;6.07;;;15.30;99.90;;;;;;4889333;29;20101;-78
2021/09/19 01:54:01;;;;;;;9.68;6.60;;;15.30;99.90;;;;;;4892859;29;20365;-79
2021/09/19 01:56:27;;;;;;;12.20;6.47;;;15.30;99.90;;;;;;4891343;29;20108;-79
2021/09/19 01:59:15;;;;;;;10.27;6.70;;;15.30;99.90;;;;;;4876840;29;20128;-80
2021/09/19 02:01:41;;;;;;;11.73;6.13;;;15.40;99.90;;;;;;4892726;29;20032;-79
2021/09/19 02:04:07;;;;;;;9.95;6.47;;;15.20;99.90;;;;;;4893504;29;20519;-79
2021/09/19 02:06:36;;;;;;;9.77;6.25;;;15.30;99.90;;;;;;4892669;29;20052;-79
2021/09/19 02:09:02;;;;;;;10.38;6.25;;;15.30;99.90;;;;;;4894472;29;20052;-80
2021/09/19 02:11:28;;;;;;;11.10;6.00;;;15.30;99.90;;;;;;4879584;29;20527;-78
2021/09/19 02:13:57;;;;;;;11.05;5.70;;;15.30;99.90;;;;;;4894632;29;20044;-79
2021/09/19 02:16:23;;;;;;;10.13;5.90;;;15.30;99.90;;;;;;4897675;29;20600;-79
2021/09/19 02:18:52;;;;;;;8.15;5.53;;;15.30;99.90;;;;;;4880590;29;20131;-79
2021/09/19 02:21:19;;;;;;;9.80;6.25;;;15.40;99.90;;;;;;4871348;29;20151;-79
2021/09/19 02:23:45;;;;;;;10.05;5.68;;;15.30;99.90;;;;;;4893661;29;20123;-79
2021/09/19 02:26:11;;;;;;;7.00;5.50;;;15.30;99.90;;;;;;4897317;29;20459;-79
2021/09/19 02:28:38;;;;;;;11.77;5.53;;;15.30;99.90;;;;;;4895443;29;20119;-79
2021/09/19 02:31:04;;;;;;;11.05;5.78;;;15.30;99.90;;;;;;4895988;29;20040;-80
2021/09/19 02:33:33;;;;;;;10.30;5.20;;;15.30;99.90;;;;;;4896614;29;20096;-79
2021/09/19 02:35:59;;;;;;;7.80;5.20;;;15.20;99.90;;;;;;4891337;29;20044;-80
2021/09/19 02:38:25;;;;;;;10.48;5.53;;;15.30;99.90;;;;;;4897674;29;20131;-78
2021/09/19 02:40:56;;;;;;;10.02;5.25;;;15.20;99.90;;;;;;4896179;29;20115;-79
2021/09/19 02:43:25;;;;;;;9.25;5.50;;;15.30;99.90;;;;;;4891226;29;20116;-79
2021/09/19 02:45:51;;;;;;;11.10;5.15;;;15.20;99.90;;;;;;4896674;29;20060;-81
2021/09/19 02:48:17;;;;;;;11.75;5.00;;;15.20;99.90;;;;;;4879103;29;20053;-78
2021/09/19 02:50:46;;;;;;;11.20;4.55;;;15.30;99.90;;;;;;4893197;29;20032;-78
2021/09/19 02:53:11;;;;;;;7.38;4.38;;;15.20;99.90;;;;;;4879595;29;20074;-78
2021/09/19 02:55:37;;;;;;;8.65;4.82;;;15.20;99.90;;;;;;4895540;29;20048;-78
2021/09/19 02:58:03;;;;;;;8.65;4.97;;;15.10;99.90;;;;;;4895048;29;20099;-79
2021/09/19 03:00:32;;;;;;;6.70;4.53;;;15.20;99.90;;;;;;4894528;29;20556;-78
2021/09/19 03:03:00;;;;;;;7.65;4.32;;;15.10;99.90;;;;;;4880122;29;20091;-79
2021/09/19 03:05:26;;;;;;;6.93;4.13;;;15.10;99.90;;;;;;4895112;29;20441;-77
2021/09/19 03:07:57;;;;;;;5.82;3.75;;;15.10;99.90;;;;;;4894605;29;20508;-79
2021/09/19 03:10:23;;;;;;;8.90;4.65;;;15.10;99.90;;;;;;4876981;29;20151;-79
2021/09/19 03:12:49;;;;;;;9.45;4.63;;;15.10;99.90;;;;;;4890672;29;20131;-79
2021/09/19 03:15:15;;;;;;;8.38;4.50;;;15.00;99.90;;;;;;4892867;29;20437;-78
2021/09/19 03:17:41;;;;;;;12.15;4.90;;;14.90;99.90;;;;;;4890656;29;20045;-79
2021/09/19 03:20:09;;;;;;;9.93;4.45;;;15.00;99.90;;;;;;4875770;29;20096;-79
2021/09/19 03:22:35;;;;;;;10.77;4.65;;;14.90;99.90;;;;;;4892091;29;20394;-79
2021/09/19 03:25:03;;;;;;;8.27;4.68;;;14.90;99.90;;;;;;4887479;29;20128;-80
2021/09/19 03:27:32;;;;;;;9.43;4.28;;;14.90;99.90;;;;;;4887051;29;20112;-78
2021/09/19 03:29:59;;;;;;;7.28;4.10;;;14.90;99.90;;;;;;4891436;29;20612;-78
2021/09/19 03:32:25;;;;;;;5.90;3.67;;;14.90;99.90;;;;;;4890970;29;20136;-77
2021/09/19 03:34:51;;;;;;;9.50;4.03;;;14.90;99.90;;;;;;4890863;29;20045;-78
2021/09/19 03:37:17;;;;;;;9.93;4.25;;;14.90;99.90;;;;;;4891764;29;20409;-78
2021/09/19 03:39:43;;;;;;;8.13;4.10;;;14.80;99.90;;;;;;4891813;29;20104;-78
2021/09/19 03:42:08;;;;;;;5.32;3.92;;;14.90;99.90;;;;;;4892530;29;20044;-78
2021/09/19 03:44:34;;;;;;;11.60;4.30;;;14.80;99.90;;;;;;4891696;29;20445;-78
2021/09/19 03:47:00;;;;;;;6.32;4.50;;;14.80;99.90;;;;;;4890343;29;20068;-79
2021/09/19 03:49:28;;;;;;;7.22;4.25;;;14.70;99.90;;;;;;4891980;29;20445;-78
2021/09/19 03:51:53;;;;;;;5.57;4.65;;;14.70;99.90;;;;;;4891091;29;20082;-79
2021/09/19 03:54:19;;;;;;;15.27;5.13;;;14.70;99.90;;;;;;4874830;29;20076;-78
2021/09/19 03:56:45;;;;;;;7.00;4.25;;;14.60;99.90;;;;;;4876627;29;20147;-78
2021/09/19 03:59:11;;;;;;;6.68;4.50;;;14.60;99.90;;;;;;4874939;29;20518;-78
2021/09/19 04:01:36;;;;;;;9.88;4.72;;;14.50;99.90;;;;;;4891738;29;20048;-79
2021/09/19 04:04:05;;;;;;;7.65;4.40;;;14.50;99.90;;;;;;4891675;29;20041;-79
2021/09/19 04:06:31;;;;;;;8.45;4.57;;;14.50;99.90;;;;;;4892401;29;20098;-78
2021/09/19 04:08:56;;;;;;;9.25;4.63;;;14.40;99.90;;;;;;4874646;29;20068;-80
2021/09/19 04:11:22;;;;;;;11.35;4.65;;;14.30;99.90;;;;;;4891895;29;20370;-78
2021/09/19 04:13:48;;;;;;;9.60;5.00;;;14.30;99.90;;;;;;4876417;29;20103;-78
2021/09/19 04:16:13;;;;;;;6.38;4.30;;;14.30;99.90;;;;;;4891972;29;20048;-79
2021/09/19 04:18:39;;;;;;;12.15;4.85;;;14.30;99.90;;;;;;4893405;29;20048;-78
2021/09/19 04:21:05;;;;;;;5.72;4.07;;;14.30;99.90;;;;;;4895045;29;20449;-79
2021/09/19 04:23:30;;;;;;;7.40;4.43;;;14.30;99.90;;;;;;4896364;29;20421;-77
2021/09/19 04:25:59;;;;;;;8.48;4.65;;;14.30;99.90;;;;;;4894341;29;20043;-79
2021/09/19 04:28:24;;;;;;;12.35;4.47;;;14.20;99.90;;;;;;4897121;29;20063;-79
2021/09/19 04:30:59;;;;;;;7.35;4.80;;;14.20;99.90;;;;;;4874824;29;20361;-79
2021/09/19 04:33:24;;;;;;;7.88;4.20;;;14.20;99.90;;;;;;4891949;29;20401;-78
2021/09/19 04:35:50;;;;;;;5.50;3.70;;;14.20;99.90;;;;;;4895417;29;20044;-79
2021/09/19 04:38:15;;;;;;;5.43;4.07;;;14.20;99.90;;;;;;4895474;29;20219;-78
2021/09/19 04:40:41;;;;;;;13.70;5.20;;;14.20;99.90;;;;;;4879582;29;20040;-78
2021/09/19 04:43:11;;;;;;;11.48;4.68;;;14.10;99.90;;;;;;4894659;29;20040;-79
2021/09/19 04:45:41;;;;;;;8.25;4.30;;;14.10;99.90;;;;;;4892543;29;20408;-78
2021/09/19 04:48:07;;;;;;;7.78;4.80;;;14.00;99.90;;;;;;4909709;29;20137;-80
2021/09/19 04:50:41;;;;;;;8.63;3.67;;;14.00;99.90;;;;;;4875553;29;20786;-80
2021/09/19 04:53:07;;;;;;;6.75;3.65;;;14.00;99.90;;;;;;4874687;29;20041;-79
2021/09/19 04:55:32;;;;;;;6.65;4.07;;;14.00;99.90;;;;;;4907593;29;20072;-78
2021/09/19 04:57:58;;;;;;;10.25;3.95;;;13.90;99.90;;;;;;4879300;29;20064;-77
2021/09/19 05:00:24;;;;;;;8.65;4.40;;;13.80;99.90;;;;;;4892453;29;20045;-78
2021/09/19 05:02:50;;;;;;;7.82;4.13;;;13.80;99.90;;;;;;4894650;29;20132;-77
2021/09/19 05:05:15;;;;;;;9.98;4.03;;;13.70;99.90;;;;;;4893989;29;20089;-80
2021/09/19 05:07:41;;;;;;;7.32;4.00;;;13.80;99.90;;;;;;4893309;29;20079;-78
2021/09/19 05:10:07;;;;;;;7.97;4.22;;;13.80;99.90;;;;;;4877452;29;20160;-77
2021/09/19 05:12:33;;;;;;;6.75;4.20;;;13.70;99.90;;;;;;4872681;29;20060;-78
2021/09/19 05:14:59;;;;;;;8.80;4.47;;;13.70;99.90;;;;;;4891597;29;20037;-78
2021/09/19 05:17:24;;;;;;;7.18;4.03;;;13.70;99.90;;;;;;4874631;29;20039;-77
2021/09/19 05:19:50;;;;;;;6.97;4.13;;;13.70;99.90;;;;;;4892199;29;20040;-78
2021/09/19 05:22:16;;;;;;;7.85;4.68;;;13.60;99.90;;;;;;4892315;29;20060;-76
2021/09/19 05:24:42;;;;;;;7.78;4.10;;;13.60;99.90;;;;;;4875417;29;20049;-78
2021/09/19 05:27:07;;;;;;;10.60;4.50;;;13.60;99.90;;;;;;4892809;29;20067;-77
2021/09/19 05:29:33;;;;;;;9.32;4.45;;;13.50;99.90;;;;;;4891690;29;20103;-77
2021/09/19 05:31:59;;;;;;;8.18;4.47;;;13.50;99.90;;;;;;4902838;29;20061;-78
2021/09/19 05:34:24;;;;;;;7.18;4.13;;;13.50;99.90;;;;;;4889713;29;20037;-78
2021/09/19 05:36:50;;;;;;;8.27;3.85;;;13.50;99.90;;;;;;4892550;29;20041;-78
2021/09/19 05:39:16;;;;;;;9.45;4.35;;;13.50;99.90;;;;;;4893077;29;20044;-76
2021/09/19 05:41:41;;;;;;;7.68;4.65;;;13.50;99.90;;;;;;4908091;29;20048;-77
2021/09/19 05:44:08;;;;;;;7.35;4.30;;;13.50;99.90;;;;;;4868270;29;20481;-78
2021/09/19 05:46:34;;;;;;;6.22;4.20;;;13.50;99.90;;;;;;4906020;29;20049;-77
2021/09/19 05:49:00;;;;;;;7.38;4.32;;;13.50;99.90;;;;;;4892005;29;20047;-78
2021/09/19 05:51:27;;;;;;;8.18;4.70;;;13.50;99.90;;;;;;4892937;29;20059;-77
2021/09/19 05:53:52;;;;;;;7.45;4.40;;;13.50;99.90;;;;;;4890539;29;20519;-78
2021/09/19 05:56:18;;;;;;;7.55;4.60;;;13.50;99.90;;;;;;4877752;29;20053;-77
2021/09/19 05:58:44;;;;;;;7.97;4.53;;;13.40;99.90;;;;;;4893920;29;20192;-78
2021/09/19 06:01:12;;;;;;;11.40;4.65;;;13.50;99.90;;;;;;4890702;29;20063;-77
2021/09/19 06:03:40;;;;;;;9.82;4.95;;;13.50;99.90;;;;;;4893357;29;20037;-78
2021/09/19 06:06:06;;;;;;;12.13;4.47;;;13.50;99.90;;;;;;4893310;29;20048;-77
2021/09/19 06:08:32;;;;;;;10.80;4.53;;;13.50;99.90;;;;;;4891703;29;20780;-78
2021/09/19 06:10:58;;;;;;;9.00;4.45;;;13.60;99.90;;;;;;4891550;29;20084;-77
2021/09/19 06:13:23;;;;;;;12.60;4.63;;;13.60;99.90;;;;;;4891400;29;20052;-77
2021/09/19 06:15:49;;;;;;;9.38;4.65;;;13.60;99.90;;;;;;4877052;29;20099;-77
2021/09/19 06:18:15;;;;;;;7.90;4.78;;;13.70;99.90;;;;;;4892031;29;20040;-76
2021/09/19 06:20:41;;;;;;;9.50;4.93;;;13.70;99.90;;;;;;4892721;29;20068;-78
2021/09/19 06:23:07;;;;;;;7.85;4.80;;;13.70;99.90;;;;;;4892767;29;20052;-75
2021/09/19 06:25:33;;;;;;;8.88;4.90;;;13.70;99.90;;;;;;4893199;29;20383;-75
2021/09/19 06:27:59;;;;;;;8.10;4.53;;;13.80;99.90;;;;;;4892129;29;20164;-77
2021/09/19 06:30:26;;;;;;;9.70;4.80;;;13.80;99.90;;;;;;4873525;29;20125;-76
2021/09/19 06:32:52;;;;;;;9.63;5.10;;;13.80;99.90;;;;;;4877952;29;20082;-77
2021/09/19 06:35:18;;;;;;;11.40;4.82;;;13.90;99.90;;;;;;4873815;29;20056;-77
2021/09/19 06:37:44;;;;;;;8.25;4.90;;;13.80;99.90;;;;;;4892212;29;20050;-77
2021/09/19 06:40:11;;;;;;;10.20;4.85;;;13.80;99.90;;;;;;4892732;29;20052;-76
2021/09/19 06:42:36;;;;;;;8.35;4.57;;;13.90;99.90;;;;;;4891230;29;20119;-78
2021/09/19 06:45:03;;;;;;;9.82;4.97;;;13.90;99.90;;;;;;4876192;29;20139;-79
2021/09/19 06:47:28;;;;;;;10.40;5.07;;;13.90;99.90;;;;;;4891280;29;20176;-78
2021/09/19 06:49:57;;;;;;;10.13;4.75;;;14.00;99.90;;;;;;4891502;29;20449;-79
2021/09/19 06:52:23;;;;;;;11.73;4.90;;;14.00;99.90;;;;;;4874805;29;20053;-77
2021/09/19 06:54:49;;;;;;;15.80;5.47;;;14.00;99.90;;;;;;4890884;29;20045;-80
2021/09/19 06:57:14;;;;;;;13.35;5.57;;;14.10;99.90;;;;;;4892036;29;20044;-80
2021/09/19 06:59:40;;;;;;;11.40;5.15;;;14.20;99.90;;;;;;4892035;29;20421;-77
2021/09/19 07:02:07;;;;;;;7.55;4.85;;;14.20;99.90;;;;;;4888486;29;20050;-76
2021/09/19 07:04:32;;;;;;;9.57;5.28;;;14.20;99.90;;;;;;4886311;29;20044;-77
2021/09/19 07:06:58;;;;;;;9.75;4.85;;;14.20;99.90;;;;;;4892271;29;20044;-78
2021/09/19 07:09:24;;;;;;;8.10;4.53;;;14.30;99.90;;;;;;4876382;29;20036;-76
2021/09/19 07:11:50;;;;;;;8.90;4.78;;;14.70;99.90;;;;;;4908338;29;20139;-75
2021/09/19 07:14:15;;;;;;;8.93;4.65;;;15.00;99.90;;;;;;4894943;29;20059;-78
2021/09/19 07:16:42;;;;;;;8.13;4.38;;;15.30;99.90;;;;;;4895602;29;20467;-77
2021/09/19 07:19:08;;;;;;;10.23;4.57;;;15.60;99.90;;;;;;4894280;29;20032;-75
2021/09/19 07:21:34;;;;;;;10.45;4.82;;;15.80;99.90;;;;;;4901501;29;20036;-75
2021/09/19 07:23:59;;;;;;;10.27;5.15;;;15.80;99.90;;;;;;4880736;29;20107;-76
2021/09/19 07:26:25;;;;;;;12.45;4.47;;;15.70;99.90;;;;;;4880511;29;20464;-77
2021/09/19 07:28:51;;;;;;;10.77;4.45;;;16.00;99.90;;;;;;4894615;29;20104;-76
2021/09/19 07:31:17;;;;;;;10.07;5.05;;;16.20;99.90;;;;;;4880328;29;20038;-75
2021/09/19 07:33:43;;;;;;;9.80;4.53;;;15.80;99.90;;;;;;4878987;29;20480;-77
2021/09/19 07:36:09;;;;;;;8.88;4.82;;;16.00;99.90;;;;;;4877393;29;20055;-80
2021/09/19 07:38:35;;;;;;;16.33;4.57;;;16.00;99.90;;;;;;4880010;29;20036;-77
2021/09/19 07:41:01;;;;;;;8.95;4.53;;;16.20;99.90;;;;;;4896736;29;20036;-75
2021/09/19 07:43:27;;;;;;;7.65;4.90;;;16.20;99.90;;;;;;4892270;29;20123;-75
2021/09/19 07:45:53;;;;;;;9.02;4.40;;;16.10;99.90;;;;;;4895365;29;20071;-76
2021/09/19 07:48:21;;;;;;;7.68;4.65;;;16.20;99.90;;;;;;4894437;29;20195;-77
2021/09/19 07:50:47;;;;;;;7.95;4.13;;;16.20;99.90;;;;;;4878303;29;20477;-79
2021/09/19 07:53:13;;;;;;;11.38;4.43;;;16.10;99.90;;;;;;4896980;29;20059;-77
2021/09/19 07:55:39;;;;;;;7.78;5.05;;;16.40;99.90;;;;;;4896638;29;20052;-77
2021/09/19 07:58:04;;;;;;;19.77;4.95;;;16.50;99.90;;;;;;4897634;29;20060;-78
2021/09/19 08:00:30;;;;;;;10.57;4.78;;;16.80;99.90;;;;;;4898271;29;20096;-81
2021/09/19 08:02:56;;;;;;;8.98;4.43;;;17.10;99.90;;;;;;4896131;29;20119;-78
2021/09/19 08:05:24;;;;;;;10.48;4.38;;;17.20;99.90;;;;;;4881693;29;20059;-78
2021/09/19 08:07:50;;;;;;;8.75;4.38;;;17.10;99.90;;;;;;4895892;29;20054;-78
2021/09/19 08:10:17;;;;;;;11.13;4.05;;;17.00;99.90;;;;;;4896849;29;20516;-77
2021/09/19 08:12:46;;;;;;;11.68;4.68;;;17.00;99.90;;;;;;4912466;29;20146;-78
2021/09/19 08:15:16;;;;;;;7.55;3.88;;;16.70;99.90;;;;;;4898025;29;20048;-75
2021/09/19 08:17:42;;;;;;;7.95;4.38;;;17.10;99.90;;;;;;4897541;29;20075;-76
2021/09/19 08:20:10;;;;;;;10.77;4.22;;;17.10;99.90;;;;;;4898139;29;20103;-75
2021/09/19 08:22:35;;;;;;;8.13;4.60;;;17.20;99.90;;;;;;4897792;29;20481;-75
2021/09/19 08:25:04;;;;;;;7.68;4.03;;;17.30;99.90;;;;;;4898125;29;20059;-76
2021/09/19 08:27:30;;;;;;;9.15;4.75;;;17.40;99.90;;;;;;4895798;29;20063;-77
2021/09/19 08:29:56;;;;;;;8.48;4.28;;;17.20;99.90;;;;;;4898734;29;20055;-77
2021/09/19 08:32:23;;;;;;;8.18;4.18;;;17.20;99.90;;;;;;4896561;29;20095;-79
2021/09/19 08:34:49;;;;;;;7.38;4.18;;;17.50;99.90;;;;;;4897897;29;20056;-75
2021/09/19 08:37:15;;;;;;;7.60;4.60;;;17.10;99.90;;;;;;4886129;29;20049;-78
2021/09/19 08:39:41;;;;;;;9.35;4.30;;;17.20;99.90;;;;;;4897664;29;21038;-79
2021/09/19 08:42:07;;;;;;;6.80;4.20;;;17.40;99.90;;;;;;4897845;29;20139;-76
2021/09/19 08:44:33;;;;;;;7.20;4.30;;;17.50;99.90;;;;;;4896698;29;20048;-81
2021/09/19 08:47:00;;;;;;;9.55;4.57;;;17.60;99.90;;;;;;4898587;29;20064;-77
2021/09/19 08:49:25;;;;;;;12.07;4.57;;;17.40;99.90;;;;;;4896879;29;20040;-80
2021/09/19 08:51:51;;;;;;;6.63;4.40;;;17.30;99.90;;;;;;4881578;29;20142;-78
2021/09/19 08:54:18;;;;;;;17.15;4.43;;;17.10;99.90;;;;;;4882386;29;20075;-80
2021/09/19 08:56:47;;;;;;;9.13;4.45;;;17.10;99.90;;;;;;4894851;29;20052;-77
2021/09/19 08:59:12;;;;;;;14.73;4.72;;;16.80;99.90;;;;;;4896933;29;20488;-77
2021/09/19 09:01:59;;;;;;;9.90;4.57;;;16.80;99.90;;;;;;4881521;29;20059;-77
2021/09/19 09:04:25;;;;;;;7.65;4.30;;;17.00;99.90;;;;;;4892429;29;20063;-77
2021/09/19 09:06:52;;;;;;;12.38;4.93;;;16.90;99.90;;;;;;4898329;29;20055;-77
2021/09/19 09:09:18;;;;;;;7.65;4.25;;;16.70;99.90;;;;;;4899117;29;20060;-76
2021/09/19 09:12:02;;;;;;;7.55;4.65;;;16.90;99.90;;;;;;4884992;29;20056;-75
2021/09/19 09:14:28;;;;;;;6.20;4.40;;;16.90;99.90;;;;;;4892469;29;20119;-75
2021/09/19 09:17:15;;;;;;;7.95;4.38;;;16.80;99.90;;;;;;4879873;29;20055;-78
2021/09/19 09:19:42;;;;;;;6.82;4.78;;;16.70;99.90;;;;;;4894592;29;20044;-77
2021/09/19 09:22:11;;;;;;;8.13;5.18;;;16.90;99.90;;;;;;4880649;29;20516;-77
2021/09/19 09:24:39;;;;;;;6.82;3.95;;;16.70;99.90;;;;;;4894765;29;20085;-79
2021/09/19 09:27:24;;;;;;;6.05;4.13;;;16.80;99.90;;;;;;4894532;29;20064;-78
2021/09/19 09:30:10;;;;;;;8.63;4.65;;;16.70;99.90;;;;;;4877024;29;20091;-78
2021/09/19 09:32:58;;;;;;;8.73;4.47;;;17.00;99.90;;;;;;4889312;29;20374;-81
2021/09/19 09:35:38;;;;;;;7.18;4.40;;;17.10;99.90;;;;;;4893032;29;20144;-79
2021/09/19 09:38:22;;;;;;;6.88;4.50;;;17.00;99.90;;;;;;4893006;29;20119;-77
2021/09/19 09:40:48;;;;;;;6.82;4.70;;;17.00;99.90;;;;;;4905264;29;20130;-79
2021/09/19 09:43:17;;;;;;;6.85;4.60;;;17.00;99.90;;;;;;4873934;29;20112;-77
2021/09/19 09:45:45;;;;;;;6.57;4.88;;;17.10;99.90;;;;;;4899744;29;20053;-78
2021/09/19 09:48:33;;;;;;;11.18;4.90;;;17.10;99.90;;;;;;4893486;29;20051;-77
2021/09/19 09:51:01;;;;;;;6.30;4.60;;;17.30;99.90;;;;;;4864552;29;20085;-78
2021/09/19 09:53:27;;;;;;;7.68;4.28;;;17.20;99.90;;;;;;4890004;29;20061;-77
2021/09/19 09:55:54;;;;;;;8.52;4.30;;;17.30;99.90;;;;;;4876191;29;20052;-78
2021/09/19 09:58:21;;;;;;;7.50;4.57;;;17.30;99.90;;;;;;4891609;29;20529;-75
2021/09/19 10:00:50;;;;;;;8.80;4.78;;;17.40;99.90;;;;;;4874540;29;20465;-77
2021/09/19 10:03:17;;;;;;;9.10;5.07;;;17.50;99.90;;;;;;4893766;29;20132;-76
2021/09/19 10:05:43;;;;;;;7.90;4.75;;;17.50;99.90;;;;;;4893916;29;20087;-76
2021/09/19 10:08:09;;;;;;;12.93;5.00;;;17.60;99.90;;;;;;4877095;29;20076;-76
2021/09/19 10:10:43;;;;;;;9.65;5.07;;;17.70;99.90;;;;;;4890788;29;20132;-76
2021/09/19 10:13:10;;;;;;;7.43;4.50;;;17.80;99.90;;;;;;4871137;29;20044;-76
2021/09/19 10:15:36;;;;;;;7.93;4.35;;;17.90;99.90;;;;;;4893802;29;20060;-77
2021/09/19 10:18:03;;;;;;;8.25;4.97;;;18.00;99.90;;;;;;4896200;29;20115;-77
2021/09/19 10:20:44;;;;;;;8.80;4.35;;;18.10;99.90;;;;;;4893941;29;20044;-77
2021/09/19 10:23:20;;;;;;;6.30;4.30;;;18.40;99.90;;;;;;4893384;29;20127;-77
2021/09/19 10:26:08;;;;;;;8.75;4.10;;;18.50;99.90;;;;;;4893725;29;20061;-78
2021/09/19 10:28:45;;;;;;;6.30;3.80;;;18.80;99.90;;;;;;4896649;29;20390;-78
2021/09/19 10:31:18;;;;;;;9.98;4.43;;;18.90;99.90;;;;;;4893846;29;20584;-78
2021/09/19 10:34:10;;;;;;;7.40;4.27;;;19.10;99.90;;;;;;4894068;29;20059;-79
2021/09/19 10:36:49;;;;;;;9.40;3.90;;;19.30;99.90;;;;;;4893997;29;20159;-79
2021/09/19 10:39:21;;;;;;;6.35;3.45;;;19.40;99.90;;;;;;4891651;29;20048;-77
2021/09/19 10:42:07;;;;;;;6.85;3.78;;;19.50;99.90;;;;;;4883612;29;20055;-78
2021/09/19 10:44:45;;;;;;;7.55;3.58;;;19.60;99.90;;;;;;4890597;29;20119;-79
2021/09/19 10:47:26;;;;;;;5.45;3.80;;;19.70;99.90;;;;;;4873401;29;20040;-80
2021/09/19 10:50:10;;;;;;;7.55;3.67;;;20.00;99.90;;;;;;4891079;29;20064;-78
2021/09/19 10:52:41;;;;;;;7.70;3.40;;;19.80;99.90;;;;;;4890436;29;20056;-79
2021/09/19 10:55:28;;;;;;;6.10;3.40;;;19.70;99.90;;;;;;4892326;29;20143;-80
2021/09/19 10:58:12;;;;;;;4.38;2.80;;;19.80;99.90;;;;;;4871697;29;20472;-81
2021/09/19 11:00:39;;;;;;;4.70;2.60;;;19.90;99.90;;;;;;4865825;29;20044;-79
2021/09/19 11:03:14;;;;;;;4.07;2.67;;;20.20;99.90;;;;;;4892030;29;20037;-78
2021/09/19 11:05:50;;;;;;;3.75;3.00;;;20.20;99.90;;;;;;4889869;29;20135;-77
2021/09/19 11:08:35;;;;;;;21.80;3.63;;;20.40;99.90;;;;;;4891119;29;20715;-80
2021/09/19 11:11:00;;;;;;;6.47;3.80;;;20.50;99.90;;;;;;4888326;29;20108;-81
2021/09/19 11:13:53;;;;;;;8.07;3.75;;;20.70;99.90;;;;;;4872928;29;20048;-83
2021/09/19 11:16:22;;;;;;;5.95;3.65;;;20.80;99.90;;;;;;4889429;29;20155;-79
2021/09/19 11:18:56;;;;;;;10.18;4.05;;;21.00;99.90;;;;;;4890999;29;20056;-79
2021/09/19 11:21:22;;;;;;;5.43;3.17;;;21.10;99.90;;;;;;4889222;29;20044;-79
2021/09/19 11:23:57;;;;;;;6.25;3.20;;;21.30;99.90;;;;;;4875698;29;20052;-84
2021/09/19 11:26:27;;;;;;;3.50;2.80;;;21.30;99.90;;;;;;4897297;29;20135;-82
2021/09/19 11:28:59;;;;;;;8.25;2.80;;;21.40;99.90;;;;;;4869682;29;20164;-88
2021/09/19 11:31:24;;;;;;;6.65;3.08;;;21.40;99.90;;;;;;4896926;29;20049;-84
2021/09/19 11:33:50;;;;;;;4.05;2.58;;;21.50;99.90;;;;;;4896008;29;20059;-88
2021/09/19 11:36:18;;;;;;;3.55;2.40;;;21.60;99.90;;;;;;4897177;29;20101;-82
2021/09/19 11:38:46;;;;;;;4.70;2.90;;;21.70;99.90;;;;;;4897564;29;20041;-84
2021/09/19 11:41:14;;;;;;;5.20;2.90;;;21.80;99.90;;;;;;4899374;29;20314;-86
2021/09/19 11:43:41;;;;;;;3.90;2.90;;;21.80;99.90;;;;;;4895282;29;20747;-84
2021/09/19 11:46:09;;;;;;;5.28;3.22;;;21.80;99.90;;;;;;4902735;29;20063;-83
2021/09/19 11:48:36;;;;;;;7.20;3.45;;;21.80;99.90;;;;;;4903150;29;20147;-82
2021/09/19 11:51:03;;;;;;;5.20;3.05;;;21.90;99.90;;;;;;4898931;29;20051;-86
2021/09/19 11:53:29;;;;;;;5.82;3.47;;;21.80;99.90;;;;;;4894523;29;20072;-86
2021/09/19 11:55:55;;;;;;;5.18;2.80;;;21.80;99.90;;;;;;4890229;29;20076;-85
2021/09/19 11:58:22;;;;;;;4.47;3.28;;;22.00;99.90;;;;;;4908835;29;20120;-84
2021/09/19 12:00:56;;;;;;;6.35;2.90;;;21.60;99.90;;;;;;4896231;29;20112;-85
2021/09/19 12:03:25;;;;;;;;;;;22.00;99.90;;;;;;4893539;29;20185;-83
2021/09/19 12:05:52;;;;;;;3.30;3.00;;;22.00;99.90;;;;;;4897930;29;19919;-86
2021/09/19 12:08:19;;;;;;;3.88;2.92;;;21.20;99.90;;;;;;4897218;29;20492;-86
2021/09/19 12:10:47;;;;;;;4.88;3.10;;;20.80;99.90;;;;;;4896720;29;20088;-84
2021/09/19 12:13:25;;;;;;;6.15;3.25;;;20.70;99.90;;;;;;4892511;29;20405;-87
2021/09/19 12:16:03;;;;;;;4.95;3.38;;;20.30;99.90;;;;;;4873485;29;20049;-86
2021/09/19 12:18:39;;;;;;;5.63;3.25;;;20.10;99.90;;;;;;4890538;29;20041;-85
2021/09/19 12:21:08;;;;;;;5.82;2.80;;;19.90;99.90;;;;;;4879953;29;20132;-84
2021/09/19 12:23:50;;;;;;;4.93;3.05;;;19.90;99.90;;;;;;4896401;29;20060;-84
2021/09/19 12:26:22;;;;;;;5.68;3.08;;;20.10;99.90;;;;;;4880942;29;20440;-85
2021/09/19 12:28:51;;;;;;;4.43;3.00;;;20.10;99.90;;;;;;4881283;29;20048;-84
2021/09/19 12:31:43;;;;;;;5.47;3.10;;;20.30;99.90;;;;;;4897110;29;20048;-86
2021/09/19 12:34:11;;;;;;;4.23;3.00;;;19.90;99.90;;;;;;4896135;29;20067;-84
2021/09/19 12:36:48;;;;;;;6.72;2.88;;;20.00;99.90;;;;;;4896205;29;20739;-86
2021/09/19 12:39:21;;;;;;;7.43;2.92;;;20.30;99.90;;;;;;4881048;29;20060;-83
2021/09/19 12:41:53;;;;;;;4.43;2.63;;;20.90;99.90;;;;;;4897308;29;20076;-84
2021/09/19 12:44:21;;;;;;;6.60;2.78;;;21.00;99.90;;;;;;4895593;29;20180;-84
2021/09/19 12:46:54;;;;;;;6.28;3.17;;;21.50;99.90;;;;;;4889295;29;20045;-85
2021/09/19 12:49:28;;;;;;;5.78;2.95;;;21.40;99.90;;;;;;4893219;29;20060;-83
2021/09/19 12:52:11;;;;;;;;;;;21.70;99.90;;;;;;4896831;29;20053;-86